createdAt,value
2022-12-17T00:01:43.602Z,95477.25
2022-12-17T00:04:30.656Z,95488.06
2022-12-17T00:07:21.501Z,95481.13
2022-12-17T00:10:08.078Z,95491.13
2022-12-17T00:12:53.324Z,95499.50
2022-12-17T00:15:42.660Z,95493.59
2022-12-17T00:18:28.007Z,95489.50
2022-12-17T00:21:14.272Z,95492.56
2022-12-17T00:24:02.087Z,95504.19
2022-12-17T00:27:03.705Z,95512.56
2022-12-17T00:29:48.702Z,95511.34
2022-12-17T00:32:45.328Z,95517.06
2022-12-17T00:35:30.438Z,95517.69
2022-12-17T00:38:15.703Z,95520.34
2022-12-17T00:41:01.016Z,95533.22
2022-12-17T00:43:47.572Z,95539.75
2022-12-17T00:46:32.799Z,95546.88
2022-12-17T00:49:21.320Z,95535.66
2022-12-17T00:52:06.683Z,95541.19
2022-12-17T00:54:51.981Z,95544.81
2022-12-17T00:57:37.335Z,95552.81
2022-12-17T01:00:25.069Z,95552.00
2022-12-17T01:03:18.838Z,95555.66
2022-12-17T01:06:04.156Z,95559.34
2022-12-17T01:08:45.677Z,95567.31
2022-12-17T01:11:30.969Z,95572.41
2022-12-17T01:14:16.338Z,95570.56
2022-12-17T01:17:02.967Z,95571.38
2022-12-17T01:19:48.178Z,95572.81
2022-12-17T01:22:33.513Z,95573.03
2022-12-17T01:25:18.842Z,95583.63
2022-12-17T01:28:07.157Z,95583.41
2022-12-17T01:30:54.649Z,95583.00
2022-12-17T01:33:41.789Z,95591.38
2022-12-17T01:36:27.581Z,95601.38
2022-12-17T01:39:12.986Z,95594.81
2022-12-17T01:41:58.135Z,95601.38
2022-12-17T01:45:08.224Z,95596.88
2022-12-17T01:47:57.592Z,95602.19
2022-12-17T01:50:47.572Z,95618.13
2022-12-17T01:53:35.980Z,95617.09
2022-12-17T01:56:22.435Z,95616.50
2022-12-17T01:59:07.427Z,95625.50
2022-12-17T02:01:52.939Z,95626.28
2022-12-17T02:04:38.520Z,95622.81
2022-12-17T02:07:39.972Z,95629.31
2022-12-17T02:10:36.782Z,95628.91
2022-12-17T02:13:31.170Z,95637.09
2022-12-17T02:16:22.507Z,95643.03
2022-12-17T02:19:11.226Z,95640.56
2022-12-17T02:22:01.114Z,95643.22
2022-12-17T02:25:02.650Z,95630.97
2022-12-17T02:27:49.744Z,95637.25
2022-12-17T02:30:35.258Z,95640.06
2022-12-17T02:33:21.051Z,95640.28
2022-12-17T02:36:10.773Z,95641.09
2022-12-17T02:38:56.787Z,95647.44
2022-12-17T02:41:46.689Z,95638.25
2022-12-17T02:44:37.075Z,95643.50
2022-12-17T02:47:26.901Z,95647.19
2022-12-17T02:50:12.807Z,95652.09
2022-12-17T02:53:02.970Z,95659.38
2022-12-17T02:55:48.361Z,95652.63
2022-12-17T02:58:33.620Z,95664.03
2022-12-17T03:01:20.461Z,95650.91
2022-12-17T03:04:05.599Z,95659.56
2022-12-17T03:06:50.887Z,95677.47
2022-12-17T03:09:50.681Z,95680.88
2022-12-17T03:12:35.743Z,95680.16
2022-12-17T03:15:35.214Z,95696.16
2022-12-17T03:18:21.845Z,95691.28
2022-12-17T03:21:11.346Z,95695.88
2022-12-17T03:23:56.670Z,95696.25
2022-12-17T03:26:53.584Z,95702.69
2022-12-17T03:29:37.896Z,95710.19
2022-12-17T03:32:23.093Z,95703.19
2022-12-17T03:35:09.832Z,95701.56
2022-12-17T03:37:55.094Z,95708.88
2022-12-17T03:40:40.394Z,95711.44
2022-12-17T03:43:31.784Z,95714.28
2022-12-17T03:46:17.605Z,95712.56
2022-12-17T03:49:02.972Z,95720.06
2022-12-17T03:51:49.781Z,95714.22
2022-12-17T03:54:35.080Z,95714.03
2022-12-17T03:57:20.446Z,95720.59
2022-12-17T04:00:05.714Z,95721.53
2022-12-17T04:02:51.092Z,95725.81
2022-12-17T04:05:36.318Z,95722.75
2022-12-17T04:08:23.066Z,95721.97
2022-12-17T04:11:08.398Z,95728.09
2022-12-17T04:13:53.753Z,95718.69
2022-12-17T04:16:42.247Z,95733.34
2022-12-17T04:19:27.573Z,95732.22
2022-12-17T04:22:12.840Z,95738.16
2022-12-17T04:24:59.385Z,95742.28
2022-12-17T04:27:44.776Z,95748.22
2022-12-17T04:30:30.611Z,95752.22
2022-12-17T04:33:15.922Z,95753.69
2022-12-17T04:36:01.421Z,95756.56
2022-12-17T04:38:46.743Z,95760.81
2022-12-17T04:41:33.275Z,95767.28
2022-12-17T04:44:18.669Z,95776.69
2022-12-17T04:47:04.084Z,95781.69
2022-12-17T04:49:49.794Z,95784.06
2022-12-17T04:52:35.226Z,95787.06
2022-12-17T04:55:20.652Z,95786.63
2022-12-17T04:58:07.249Z,95788.88
2022-12-17T05:00:52.621Z,95788.81
2022-12-17T05:03:38.281Z,95794.19
2022-12-17T05:06:24.184Z,95794.81
2022-12-17T05:09:09.449Z,95808.34
2022-12-17T05:11:53.931Z,95804.41
2022-12-17T05:14:43.025Z,95812.34
2022-12-17T05:17:28.446Z,95816.00
2022-12-17T05:20:13.713Z,95812.41
2022-12-17T05:22:59.116Z,95823.28
2022-12-17T05:25:44.519Z,95823.53
2022-12-17T05:28:29.830Z,95831.63
2022-12-17T05:31:16.601Z,95838.84
2022-12-17T05:34:01.701Z,95836.06
2022-12-17T05:36:47.090Z,95844.00
2022-12-17T05:39:32.430Z,95847.94
2022-12-17T05:42:17.598Z,95848.56
2022-12-17T05:45:03.000Z,95852.41
2022-12-17T05:47:49.566Z,95853.88
2022-12-17T05:50:34.869Z,95852.69
2022-12-17T05:53:21.317Z,95860.34
2022-12-17T05:56:10.160Z,95860.47
2022-12-17T05:58:55.695Z,95868.81
2022-12-17T06:01:41.107Z,95874.13
2022-12-17T06:04:28.205Z,95882.34
2022-12-17T06:07:13.591Z,95878.22
2022-12-17T06:09:58.902Z,95875.78
2022-12-17T06:12:44.317Z,95878.88
2022-12-17T06:15:29.634Z,95881.91
2022-12-17T06:18:17.083Z,95888.66
2022-12-17T06:21:03.936Z,95889.47
2022-12-17T06:23:49.380Z,95897.84
2022-12-17T06:26:34.732Z,95896.75
2022-12-17T06:29:20.109Z,95906.69
2022-12-17T06:32:01.613Z,95906.72
2022-12-17T06:34:46.977Z,95912.84
2022-12-17T06:37:33.490Z,95918.31
2022-12-17T06:40:18.862Z,95921.91
2022-12-17T06:43:13.668Z,95926.34
2022-12-17T06:45:59.017Z,95928.09
2022-12-17T06:48:44.241Z,95934.97
2022-12-17T06:51:29.564Z,95940.03
2022-12-17T06:54:16.060Z,95935.59
2022-12-17T06:57:01.367Z,95948.88
2022-12-17T06:59:46.642Z,95947.44
2022-12-17T07:02:46.516Z,95958.47
2022-12-17T07:05:32.377Z,95956.97
2022-12-17T07:08:18.247Z,95964.78
2022-12-17T07:11:04.042Z,95970.59
2022-12-17T07:13:49.292Z,95975.03
2022-12-17T07:16:34.615Z,95970.41
2022-12-17T07:19:25.308Z,95981.91
2022-12-17T07:22:20.596Z,95980.41
2022-12-17T07:25:05.967Z,95981.81
2022-12-17T07:27:52.741Z,95978.59
2022-12-17T07:30:55.545Z,95979.91
2022-12-17T07:33:41.086Z,95980.34
2022-12-17T07:36:26.230Z,95983.81
2022-12-17T07:39:11.517Z,95988.22
2022-12-17T07:41:56.788Z,95992.84
2022-12-17T07:44:43.340Z,96001.44
2022-12-17T07:47:28.674Z,96007.41
2022-12-17T07:50:28.498Z,96013.91
2022-12-17T07:53:20.023Z,96022.44
2022-12-17T07:56:05.261Z,96029.09
2022-12-17T07:58:50.475Z,96022.28
2022-12-17T08:01:37.167Z,96019.28
2022-12-17T08:04:22.367Z,96020.75
2022-12-17T08:07:13.864Z,96019.63
2022-12-17T08:09:59.583Z,96007.53
2022-12-17T08:12:56.003Z,96015.13
2022-12-17T08:15:41.517Z,96027.47
2022-12-17T08:18:28.231Z,96023.66
2022-12-17T08:21:13.580Z,96019.75
2022-12-17T08:23:58.839Z,96030.63
2022-12-17T08:26:59.478Z,96038.53
2022-12-17T08:29:44.762Z,96042.09
2022-12-17T08:32:30.021Z,96044.22
2022-12-17T08:35:16.558Z,96046.25
2022-12-17T08:38:01.843Z,96044.84
2022-12-17T08:40:47.242Z,96046.56
2022-12-17T08:43:32.536Z,96041.38
2022-12-17T08:46:17.875Z,96045.41
2022-12-17T08:49:03.090Z,96049.44
2022-12-17T08:51:49.673Z,96047.16
2022-12-17T08:54:35.186Z,96049.16
2022-12-17T08:57:31.520Z,96039.84
2022-12-17T09:00:17.308Z,96036.72
2022-12-17T09:03:02.722Z,96050.53
2022-12-17T09:05:48.435Z,96045.22
2022-12-17T09:08:34.592Z,96050.72
2022-12-17T09:11:19.979Z,96045.94
2022-12-17T09:14:05.250Z,96047.00
2022-12-17T09:16:50.692Z,96048.94
2022-12-17T09:19:35.827Z,96049.56
2022-12-17T09:22:21.169Z,96057.59
2022-12-17T09:25:07.766Z,96052.69
2022-12-17T09:27:53.058Z,96056.06
2022-12-17T09:30:38.514Z,96058.94
2022-12-17T09:33:28.997Z,96061.22
2022-12-17T09:36:28.853Z,96065.53
2022-12-17T09:39:13.835Z,96064.34
2022-12-17T09:42:06.687Z,96072.53
2022-12-17T09:45:01.552Z,96076.19
2022-12-17T09:47:54.851Z,96068.97
2022-12-17T09:50:40.309Z,96064.19
2022-12-17T09:53:39.596Z,96068.47
2022-12-17T09:56:28.041Z,96072.19
2022-12-17T09:59:14.623Z,96060.31
2022-12-17T10:02:00.478Z,96066.41
2022-12-17T10:04:52.189Z,96064.13
2022-12-17T10:07:40.931Z,96067.00
2022-12-17T10:10:34.630Z,96066.28
2022-12-17T10:13:19.926Z,96065.19
2022-12-17T10:16:06.724Z,96075.16
2022-12-17T10:18:48.368Z,96072.72
2022-12-17T10:21:36.754Z,96075.41
2022-12-17T10:24:25.447Z,96076.66
2022-12-17T10:27:10.752Z,96073.94
2022-12-17T10:29:56.026Z,96069.00
2022-12-17T10:32:44.515Z,96072.19
2022-12-17T10:35:37.514Z,96067.34
2022-12-17T10:38:29.933Z,96075.38
2022-12-17T10:41:15.103Z,96077.22
2022-12-17T10:44:00.210Z,96084.41
2022-12-17T10:46:47.185Z,96093.31
2022-12-17T10:49:36.055Z,96089.66
2022-12-17T10:52:24.391Z,96093.31
2022-12-17T10:55:20.988Z,96091.84
2022-12-17T10:58:08.804Z,96091.31
2022-12-17T11:00:56.452Z,96092.69
2022-12-17T11:03:49.035Z,96093.47
2022-12-17T11:06:42.708Z,96095.13
2022-12-17T11:09:36.767Z,96095.72
2022-12-17T11:12:30.327Z,96093.25
2022-12-17T11:15:20.057Z,96092.94
2022-12-17T11:18:22.411Z,96094.06
2022-12-17T11:21:15.863Z,96099.59
2022-12-17T11:24:07.208Z,96091.09
2022-12-17T11:26:55.557Z,96087.03
2022-12-17T11:29:40.775Z,96097.31
2022-12-17T11:32:51.236Z,96100.38
2022-12-17T11:35:42.544Z,96107.66
2022-12-17T11:38:40.702Z,96102.56
2022-12-17T11:41:37.624Z,96106.91
2022-12-17T11:44:33.513Z,96114.69
2022-12-17T11:47:29.955Z,96107.28
2022-12-17T11:50:25.516Z,96097.81
2022-12-17T11:53:22.859Z,96093.53
2022-12-17T11:56:18.512Z,96094.00
2022-12-17T11:59:09.087Z,96098.81
2022-12-17T12:02:02.324Z,96095.50
2022-12-17T12:05:09.774Z,96094.41
2022-12-17T12:08:01.418Z,96094.72
2022-12-17T12:10:55.304Z,96100.63
2022-12-17T12:13:47.090Z,96098.22
2022-12-17T12:16:44.006Z,96099.25
2022-12-17T12:19:39.037Z,96090.25
2022-12-17T12:22:31.055Z,96097.16
2022-12-17T12:25:40.801Z,96092.66
2022-12-17T12:28:37.435Z,96099.28
2022-12-17T12:31:29.950Z,96091.84
2022-12-17T12:34:21.741Z,96098.19
2022-12-17T12:37:09.564Z,96103.53
2022-12-17T12:39:58.787Z,96104.38
2022-12-17T12:42:52.186Z,96099.47
2022-12-17T12:45:52.622Z,96099.16
2022-12-17T12:48:50.603Z,96101.91
2022-12-17T12:51:41.921Z,96102.00
2022-12-17T12:54:42.247Z,96102.94
2022-12-17T12:57:46.455Z,96105.13
2022-12-17T13:00:47.132Z,96116.44
2022-12-17T13:03:43.493Z,96108.03
2022-12-17T13:06:11.025Z,96113.53
2022-12-17T13:08:40.797Z,96112.50
2022-12-17T13:11:28.241Z,96115.81
2022-12-17T13:14:05.818Z,96108.63
2022-12-17T13:16:40.225Z,96119.53
2022-12-17T13:19:21.427Z,96112.19
2022-12-17T13:21:49.735Z,96117.94
2022-12-17T13:24:27.131Z,96115.91
2022-12-17T13:26:54.901Z,96123.31
2022-12-17T13:29:28.163Z,96133.16
2022-12-17T13:32:08.127Z,96145.91
2022-12-17T13:35:02.394Z,96151.00
2022-12-17T13:37:41.950Z,96142.56
2022-12-17T13:40:27.147Z,96139.91
2022-12-17T13:42:55.271Z,96151.59
2022-12-17T13:45:25.076Z,96147.91
2022-12-17T13:47:56.673Z,96157.38
2022-12-17T13:50:35.136Z,96159.22
2022-12-17T13:53:11.359Z,96153.88
2022-12-17T13:55:40.471Z,96163.25
2022-12-17T13:58:22.174Z,96157.66
2022-12-17T14:00:49.889Z,96172.94
2022-12-17T14:03:37.137Z,96175.06
2022-12-17T14:06:11.349Z,96180.66
2022-12-17T14:08:39.547Z,96186.28
2022-12-17T14:11:26.546Z,96198.94
2022-12-17T14:13:54.747Z,96207.22
2022-12-17T14:16:23.821Z,96207.63
2022-12-17T14:18:53.878Z,96203.63
2022-12-17T14:21:25.932Z,96209.84
2022-12-17T14:23:54.100Z,96217.19
2022-12-17T14:26:23.288Z,96208.13
2022-12-17T14:28:52.571Z,96207.84
2022-12-17T14:31:31.663Z,96213.41
2022-12-17T14:34:07.462Z,96215.63
2022-12-17T14:36:37.654Z,96213.59
2022-12-17T14:39:11.335Z,96228.00
2022-12-17T14:41:57.877Z,96232.56
2022-12-17T14:44:28.120Z,96234.56
2022-12-17T14:47:08.739Z,96239.31
2022-12-17T14:49:38.437Z,96237.97
2022-12-17T14:52:14.200Z,96236.88
2022-12-17T14:54:47.223Z,96243.47
2022-12-17T14:57:23.460Z,96240.91
2022-12-17T14:59:54.252Z,96243.00
2022-12-17T15:02:26.596Z,96242.66
2022-12-17T15:04:57.705Z,96261.66
2022-12-17T15:07:27.936Z,96267.59
2022-12-17T15:09:56.779Z,96268.84
2022-12-17T15:12:26.523Z,96269.78
2022-12-17T15:14:54.235Z,96274.69
2022-12-17T15:17:21.929Z,96277.59
2022-12-17T15:19:55.725Z,96279.63
2022-12-17T15:22:24.338Z,96282.19
2022-12-17T15:24:52.023Z,96283.00
2022-12-17T15:27:19.697Z,96286.19
2022-12-17T15:29:51.689Z,96286.59
2022-12-17T15:32:20.555Z,96293.44
2022-12-17T15:34:48.452Z,96289.00
2022-12-17T15:37:21.016Z,96285.06
2022-12-17T15:39:52.015Z,96299.88
2022-12-17T15:42:37.110Z,96298.78
2022-12-17T15:45:07.276Z,96300.94
2022-12-17T15:47:34.866Z,96301.31
2022-12-17T15:50:02.490Z,96301.47
2022-12-17T15:52:30.098Z,96301.66
2022-12-17T15:54:57.709Z,96300.31
2022-12-17T15:57:25.368Z,96292.25
2022-12-17T15:59:53.286Z,96304.31
2022-12-17T16:02:22.506Z,96300.97
2022-12-17T16:04:50.292Z,96301.97
2022-12-17T16:07:17.930Z,96306.75
2022-12-17T16:09:45.607Z,96304.09
2022-12-17T16:12:13.240Z,96320.78
2022-12-17T16:14:40.921Z,96322.44
2022-12-17T16:17:08.725Z,96310.19
2022-12-17T16:19:37.855Z,96316.63
2022-12-17T16:22:05.542Z,96317.41
2022-12-17T16:24:33.168Z,96316.56
2022-12-17T16:27:04.325Z,96307.41
2022-12-17T16:29:32.562Z,96305.09
2022-12-17T16:32:00.372Z,96306.41
2022-12-17T16:34:28.050Z,96310.72
2022-12-17T16:36:57.117Z,96312.84
2022-12-17T16:39:24.822Z,96308.63
2022-12-17T16:41:52.591Z,96317.06
2022-12-17T16:44:20.390Z,96310.78
2022-12-17T16:46:48.082Z,96312.72
2022-12-17T16:49:18.048Z,96313.59
2022-12-17T16:51:46.979Z,96316.09
2022-12-17T16:54:17.769Z,96315.41
2022-12-17T16:56:47.097Z,96317.22
2022-12-17T16:59:16.323Z,96319.34
2022-12-17T17:01:46.624Z,96314.63
2022-12-17T17:04:16.514Z,96312.28
2022-12-17T17:06:46.857Z,96304.81
2022-12-17T17:09:16.706Z,96319.34
2022-12-17T17:11:49.490Z,96319.00
2022-12-17T17:14:19.141Z,96320.66
2022-12-17T17:16:46.906Z,96321.59
2022-12-17T17:19:15.165Z,96323.91
2022-12-17T17:21:43.687Z,96333.78
2022-12-17T17:24:20.453Z,96339.44
2022-12-17T17:26:51.500Z,96339.66
2022-12-17T17:29:19.407Z,96343.28
2022-12-17T17:34:34.713Z,96342.41
2022-12-17T17:37:02.339Z,96343.41
2022-12-17T17:39:32.979Z,96344.56
2022-12-17T17:42:02.553Z,96350.88
2022-12-17T17:44:30.225Z,96352.66
2022-12-17T17:46:57.961Z,96356.66
2022-12-17T17:49:25.832Z,96370.47
2022-12-17T17:52:09.353Z,96360.47
2022-12-17T17:54:38.191Z,96362.31
2022-12-17T17:57:07.222Z,96360.03
2022-12-17T17:59:34.884Z,96366.75
2022-12-17T18:02:03.924Z,96362.91
2022-12-17T18:04:32.523Z,96372.53
2022-12-17T18:09:47.993Z,96371.47
2022-12-17T18:12:34.295Z,96367.50
2022-12-17T18:15:18.587Z,96374.16
2022-12-17T18:17:47.721Z,96368.56
2022-12-17T18:20:15.676Z,96373.16
2022-12-17T18:22:44.885Z,96374.75
2022-12-17T18:25:12.877Z,96372.94
2022-12-17T18:27:42.451Z,96372.59
2022-12-17T18:30:11.003Z,96374.84
2022-12-17T18:32:38.710Z,96386.66
2022-12-17T18:35:07.351Z,96392.59
2022-12-17T18:37:35.114Z,96385.34
2022-12-17T18:40:02.845Z,96392.78
2022-12-17T18:42:47.814Z,96392.97
2022-12-17T18:45:17.146Z,96398.72
2022-12-17T18:47:45.115Z,96390.66
2022-12-17T18:50:13.358Z,96390.19
2022-12-17T18:52:41.066Z,96404.25
2022-12-17T18:55:12.151Z,96401.19
2022-12-17T18:57:39.881Z,96401.69
2022-12-17T19:00:08.950Z,96401.69
2022-12-17T19:02:38.199Z,96410.66
2022-12-17T19:05:06.280Z,96404.00
2022-12-17T19:07:33.983Z,96405.78
2022-12-17T19:10:01.593Z,96402.63
2022-12-17T19:12:29.324Z,96402.94
2022-12-17T19:14:56.961Z,96407.75
2022-12-17T19:17:25.325Z,96404.44
2022-12-17T19:19:54.279Z,96403.25
2022-12-17T19:22:22.072Z,96400.75
2022-12-17T19:24:49.725Z,96402.75
2022-12-17T19:27:17.392Z,96404.59
2022-12-17T19:29:49.184Z,96406.91
2022-12-17T19:32:17.522Z,96410.41
2022-12-17T19:34:45.263Z,96414.28
2022-12-17T19:37:14.246Z,96416.97
2022-12-17T19:39:42.023Z,96416.50
2022-12-17T19:42:24.431Z,96415.38
2022-12-17T19:44:53.136Z,96417.03
2022-12-17T19:47:21.047Z,96418.50
2022-12-17T19:49:48.690Z,96422.28
2022-12-17T19:52:17.656Z,96427.41
2022-12-17T19:54:45.297Z,96435.53
2022-12-17T19:57:12.904Z,96435.34
2022-12-17T19:59:54.444Z,96434.34
2022-12-17T20:02:22.336Z,96433.53
2022-12-17T20:04:51.060Z,96427.44
2022-12-17T20:07:20.034Z,96428.59
2022-12-17T20:09:47.719Z,96423.47
2022-12-17T20:12:15.382Z,96429.94
2022-12-17T20:14:43.015Z,96433.59
2022-12-17T20:17:10.828Z,96429.28
2022-12-17T20:19:38.679Z,96428.00
2022-12-17T20:22:07.521Z,96424.00
2022-12-17T20:24:37.207Z,96430.16
2022-12-17T20:27:05.736Z,96437.94
2022-12-17T20:29:35.988Z,96439.59
2022-12-17T20:32:04.315Z,96443.91
2022-12-17T20:34:32.407Z,96445.22
2022-12-17T20:37:00.090Z,96445.88
2022-12-17T20:39:28.415Z,96444.34
2022-12-17T20:41:58.252Z,96444.91
2022-12-17T20:44:26.038Z,96447.00
2022-12-17T20:46:53.682Z,96455.78
2022-12-17T20:49:24.413Z,96452.97
2022-12-17T20:51:52.091Z,96451.63
2022-12-17T20:54:19.743Z,96450.13
2022-12-17T20:56:47.392Z,96442.31
2022-12-17T20:59:18.373Z,96448.78
2022-12-17T21:01:51.625Z,96445.13
2022-12-17T21:04:22.379Z,96444.78
2022-12-17T21:06:50.188Z,96446.72
2022-12-17T21:09:20.134Z,96444.94
2022-12-17T21:11:48.043Z,96447.59
2022-12-17T21:14:18.992Z,96447.09
2022-12-17T21:16:47.316Z,96453.38
2022-12-17T21:19:21.228Z,96448.91
2022-12-17T21:21:49.202Z,96446.38
2022-12-17T21:24:16.950Z,96451.84
2022-12-17T21:26:45.775Z,96442.72
2022-12-17T21:29:14.372Z,96446.00
2022-12-17T21:31:45.772Z,96450.47
2022-12-17T21:34:16.207Z,96445.69
2022-12-17T21:36:44.975Z,96453.31
2022-12-17T21:39:14.503Z,96450.66
2022-12-17T21:42:03.963Z,96446.19
2022-12-17T21:44:32.132Z,96457.31
2022-12-17T21:47:02.080Z,96457.31
2022-12-17T21:49:29.819Z,96449.56
2022-12-17T21:51:59.173Z,96447.84
2022-12-17T21:54:26.911Z,96451.84
2022-12-17T21:56:54.639Z,96449.84
2022-12-17T21:59:22.309Z,96448.38
2022-12-17T22:01:50.748Z,96460.34
2022-12-17T22:04:20.196Z,96456.69
2022-12-17T22:06:47.973Z,96451.66
2022-12-17T22:09:57.309Z,96455.50
2022-12-17T22:12:30.303Z,96463.09
2022-12-17T22:14:57.978Z,96464.16
2022-12-17T22:17:26.133Z,96462.81
2022-12-17T22:19:55.141Z,96451.25
2022-12-17T22:22:22.788Z,96457.88
2022-12-17T22:24:50.500Z,96452.41
2022-12-17T22:27:18.255Z,96451.25
2022-12-17T22:30:03.472Z,96456.56
2022-12-17T22:32:48.747Z,96453.78
2022-12-17T22:36:41.926Z,96458.56
2022-12-17T22:41:07.279Z,96467.84
2022-12-17T22:44:29.081Z,96487.06
2022-12-17T22:44:42.956Z,96477.59
2022-12-17T22:46:31.555Z,96463.50
2022-12-17T22:48:59.312Z,96472.75
2022-12-17T22:51:33.713Z,96479.34
2022-12-17T22:54:06.754Z,96471.94
2022-12-17T23:03:02.473Z,96468.41
2022-12-17T23:05:30.966Z,96481.16
2022-12-17T23:07:59.463Z,96488.25
2022-12-17T23:10:29.264Z,96475.50
2022-12-17T23:12:57.072Z,96477.34
2022-12-17T23:15:28.635Z,96475.38
2022-12-17T23:17:58.731Z,96478.34
2022-12-17T23:20:29.023Z,96479.91
2022-12-17T23:22:57.711Z,96469.97
2022-12-17T23:25:26.758Z,96482.22
2022-12-17T23:27:54.490Z,96481.72
2022-12-17T23:30:22.678Z,96484.16
2022-12-17T23:32:50.474Z,96476.69
2022-12-17T23:35:18.412Z,96472.75
2022-12-17T23:37:47.497Z,96464.97
2022-12-17T23:40:15.282Z,96475.28
2022-12-17T23:42:42.949Z,96462.50
2022-12-17T23:45:11.948Z,96462.31
2022-12-17T23:47:41.232Z,96470.97
2022-12-17T23:50:10.806Z,96473.22
2022-12-17T23:52:38.565Z,96467.91
2022-12-17T23:55:08.998Z,96470.41
2022-12-17T23:57:37.128Z,96472.06
